Time;durP1;ratioP1;P1;durP2;ratioP2;P2;SDS_P1;SDS_P2;PMS_P1;PMS_P2;Temp;Humidity;BMP_temperature;BMP_pressure;BME280_temperature;BME280_humidity;BME280_pressure;Samples;Min_cycle;Max_cycle;Signal;HPM_P1;HPM_P2
2022/12/07 00:01:51;;;;;;;21.65;13.95;;;3.30;1.00;;;;;;6230516;22;20203;-82
2022/12/07 00:04:19;;;;;;;16.90;9.30;;;3.30;1.00;;;;;;6208321;22;20215;-81
2022/12/07 00:06:53;;;;;;;18.45;9.90;;;3.30;1.00;;;;;;6204601;22;20237;-82
2022/12/07 00:09:20;;;;;;;17.45;9.93;;;3.20;1.00;;;;;;6225286;22;20247;-82
2022/12/07 00:11:51;;;;;;;17.13;9.50;;;3.20;1.00;;;;;;6214346;22;20208;-83
2022/12/07 00:14:19;;;;;;;18.45;10.02;;;3.10;1.00;;;;;;6220094;22;20223;-82
2022/12/07 00:16:55;;;;;;;16.92;9.13;;;3.10;1.00;;;;;;6230952;22;20246;-79
2022/12/07 00:19:28;;;;;;;17.45;9.73;;;3.10;1.00;;;;;;6228372;22;20213;-78
2022/12/07 00:21:57;;;;;;;17.08;8.90;;;3.20;1.00;;;;;;6230788;22;20189;-79
2022/12/07 00:24:29;;;;;;;13.70;8.40;;;3.20;1.00;;;;;;6221903;22;20293;-83
2022/12/07 00:26:56;;;;;;;15.80;8.90;;;3.20;1.00;;;;;;6233443;22;20232;-77
2022/12/07 00:29:29;;;;;;;21.65;9.43;;;3.20;1.00;;;;;;6229811;22;20222;-82
2022/12/07 00:31:56;;;;;;;18.45;10.30;;;3.20;1.00;;;;;;6233956;22;20223;-77
2022/12/07 00:34:25;;;;;;;16.67;9.40;;;3.20;1.00;;;;;;6227286;22;20215;-80
2022/12/07 00:36:56;;;;;;;14.10;7.78;;;3.10;1.00;;;;;;6192397;22;20213;-83
2022/12/07 00:39:31;;;;;;;13.10;7.80;;;3.00;1.00;;;;;;6215341;22;20219;-82
2022/12/07 00:41:57;;;;;;;17.25;9.35;;;2.90;1.00;;;;;;6222723;22;20220;-77
2022/12/07 00:44:29;;;;;;;14.10;8.75;;;2.90;1.00;;;;;;6230303;22;20230;-81
2022/12/07 00:46:57;;;;;;;15.68;9.27;;;2.90;1.00;;;;;;6230867;22;20221;-79
2022/12/07 00:49:28;;;;;;;16.55;9.88;;;2.90;1.00;;;;;;6226855;22;20228;-83
2022/12/07 00:51:57;;;;;;;13.90;7.63;;;2.90;1.00;;;;;;6232069;22;20215;-79
2022/12/07 00:54:28;;;;;;;15.45;9.50;;;2.90;1.00;;;;;;6209688;22;20725;-81
2022/12/07 00:56:55;;;;;;;14.70;8.70;;;2.80;1.00;;;;;;6189451;23;20209;-79
2022/12/07 00:59:22;;;;;;;14.45;9.02;;;2.90;1.00;;;;;;6218970;22;20204;-79
2022/12/07 01:01:49;;;;;;;14.70;9.15;;;2.90;1.00;;;;;;6226467;22;20228;-79
2022/12/07 01:04:16;;;;;;;16.30;9.57;;;2.90;1.00;;;;;;6225702;22;20802;-81
2022/12/07 01:06:43;;;;;;;14.13;7.75;;;2.90;1.00;;;;;;6227237;22;20886;-84
2022/12/07 01:09:12;;;;;;;15.05;8.73;;;2.80;1.00;;;;;;6227217;22;20248;-82
2022/12/07 01:11:41;;;;;;;13.63;8.20;;;2.80;1.00;;;;;;6234445;22;20217;-78
2022/12/07 01:14:08;;;;;;;13.20;8.70;;;2.80;1.00;;;;;;6236224;22;20263;-82
2022/12/07 01:16:40;;;;;;;13.48;8.60;;;2.80;1.00;;;;;;6232551;22;20220;-78
2022/12/07 01:19:07;;;;;;;14.68;8.30;;;2.70;1.00;;;;;;6234179;22;20815;-78
2022/12/07 01:21:39;;;;;;;13.00;7.28;;;2.70;1.00;;;;;;6244707;22;20191;-82
2022/12/07 01:24:10;;;;;;;13.32;8.35;;;2.60;1.00;;;;;;6236645;22;20209;-82
2022/12/07 01:26:44;;;;;;;14.13;7.88;;;2.60;1.00;;;;;;6234593;22;20211;-81
2022/12/07 01:29:19;;;;;;;13.02;8.00;;;2.70;1.00;;;;;;6241455;22;20219;-83
2022/12/07 01:31:51;;;;;;;13.32;7.45;;;2.80;1.00;;;;;;6236373;22;20220;-78
2022/12/07 01:34:22;;;;;;;12.25;7.90;;;2.80;1.00;;;;;;6236164;22;20223;-78
2022/12/07 01:36:49;;;;;;;11.35;7.10;;;2.80;1.00;;;;;;6235476;22;20216;-80
2022/12/07 01:39:20;;;;;;;11.80;7.30;;;2.90;1.00;;;;;;6234057;22;20249;-78
2022/12/07 01:41:51;;;;;;;12.27;7.40;;;2.90;1.00;;;;;;6234238;22;20244;-77
2022/12/07 01:44:23;;;;;;;13.35;7.68;;;3.00;1.00;;;;;;6232289;22;20196;-79
2022/12/07 01:46:51;;;;;;;13.00;7.35;;;3.00;1.00;;;;;;6234598;22;20287;-83
2022/12/07 01:49:30;;;;;;;12.95;7.78;;;3.10;1.00;;;;;;6234001;22;20192;-82
2022/12/07 01:52:09;;;;;;;12.80;7.88;;;3.00;1.00;;;;;;6232944;22;20256;-79
2022/12/07 01:54:42;;;;;;;15.35;8.13;;;3.10;1.00;;;;;;6240581;22;20195;-79
2022/12/07 01:57:13;;;;;;;13.43;7.03;;;3.10;1.00;;;;;;6241219;22;20208;-82
2022/12/07 01:59:43;;;;;;;11.77;7.28;;;3.20;1.00;;;;;;6225281;22;20193;-80
2022/12/07 02:02:20;;;;;;;13.32;8.10;;;3.20;1.00;;;;;;6220381;22;20189;-83
2022/12/07 02:04:48;;;;;;;13.07;7.72;;;3.30;1.00;;;;;;6230260;22;20217;-83
2022/12/07 02:07:24;;;;;;;11.40;6.45;;;3.30;1.00;;;;;;6231982;22;20370;-78
2022/12/07 02:09:51;;;;;;;10.68;5.97;;;3.40;1.00;;;;;;6235295;22;20205;-82
2022/12/07 02:12:23;;;;;;;10.50;5.85;;;3.30;1.00;;;;;;6242065;22;20201;-78
2022/12/07 02:14:50;;;;;;;13.52;6.43;;;3.30;1.00;;;;;;6237310;22;20340;-82
2022/12/07 02:17:26;;;;;;;15.07;7.65;;;3.20;1.00;;;;;;6217836;22;20204;-79
2022/12/07 02:20:22;;;;;;;11.35;6.55;;;3.20;1.00;;;;;;6231536;22;20230;-83
2022/12/07 02:23:21;;;;;;;11.40;6.43;;;3.20;1.00;;;;;;6234166;22;20236;-79
2022/12/07 02:26:31;;;;;;;12.18;7.15;;;3.20;1.00;;;;;;6152765;23;20230;-82
2022/12/07 02:29:18;;;;;;;10.80;6.15;;;3.20;1.00;;;;;;6231922;22;20193;-81
2022/12/07 02:31:51;;;;;;;11.43;6.15;;;3.10;1.00;;;;;;6228693;22;20960;-81
2022/12/07 02:34:31;;;;;;;11.32;6.18;;;3.20;1.00;;;;;;6215696;22;20221;-84
2022/12/07 02:37:09;;;;;;;11.40;6.50;;;3.10;1.00;;;;;;6230467;22;20227;-83
2022/12/07 02:39:46;;;;;;;11.18;6.40;;;3.10;1.00;;;;;;6227013;22;20216;-83
2022/12/07 02:42:19;;;;;;;12.32;6.57;;;3.10;1.00;;;;;;6232039;22;20219;-82
2022/12/07 02:44:48;;;;;;;11.48;6.00;;;3.00;1.00;;;;;;6230875;22;20224;-78
2022/12/07 02:47:21;;;;;;;12.00;7.05;;;3.10;1.00;;;;;;6231013;22;20205;-80
2022/12/07 02:49:50;;;;;;;11.20;6.75;;;3.00;1.00;;;;;;6231914;22;20300;-78
2022/12/07 02:52:21;;;;;;;11.52;5.32;;;3.00;1.00;;;;;;6231523;22;20200;-79
2022/12/07 02:54:48;;;;;;;10.48;6.65;;;2.90;1.00;;;;;;6232746;22;20217;-78
2022/12/07 02:57:32;;;;;;;10.23;6.63;;;2.80;1.00;;;;;;6228541;22;20939;-79
2022/12/07 03:00:07;;;;;;;11.60;6.15;;;2.80;1.00;;;;;;6234151;22;20216;-83
2022/12/07 03:03:01;;;;;;;10.50;5.97;;;2.80;1.00;;;;;;6232451;22;20227;-83
2022/12/07 03:05:58;;;;;;;11.73;6.40;;;2.80;1.00;;;;;;6232867;22;20227;-83
2022/12/07 03:08:35;;;;;;;11.55;5.95;;;2.80;1.00;;;;;;6228187;22;20212;-79
2022/12/07 03:11:06;;;;;;;11.95;6.72;;;2.80;1.00;;;;;;6211462;22;20214;-79
2022/12/07 03:13:42;;;;;;;11.38;6.75;;;2.70;1.00;;;;;;6228118;22;20212;-82
2022/12/07 03:16:35;;;;;;;11.60;6.75;;;2.70;1.00;;;;;;6199474;22;20259;-79
2022/12/07 03:19:09;;;;;;;11.73;6.05;;;2.70;1.00;;;;;;6225472;22;20976;-79
2022/12/07 03:21:45;;;;;;;12.57;6.70;;;2.70;1.00;;;;;;6224147;22;20247;-83
2022/12/07 03:24:30;;;;;;;11.10;6.30;;;2.60;1.00;;;;;;6222519;22;20234;-81
2022/12/07 03:27:16;;;;;;;14.95;7.32;;;2.60;1.00;;;;;;6216064;22;20252;-79
2022/12/07 03:29:47;;;;;;;14.50;8.10;;;2.70;1.00;;;;;;6213964;22;20211;-83
2022/12/07 03:32:22;;;;;;;12.95;7.70;;;2.70;1.00;;;;;;6218660;22;20212;-79
2022/12/07 03:35:01;;;;;;;11.73;6.55;;;2.70;1.00;;;;;;6231365;22;20209;-82
2022/12/07 03:37:34;;;;;;;13.93;8.10;;;2.80;1.00;;;;;;6208531;22;20684;-82
2022/12/07 03:40:07;;;;;;;12.57;7.60;;;2.80;1.00;;;;;;6213896;22;20207;-80
2022/12/07 03:42:40;;;;;;;11.23;7.32;;;2.80;1.00;;;;;;6225996;22;20223;-79
2022/12/07 03:45:09;;;;;;;11.77;7.13;;;2.80;1.00;;;;;;6232006;22;20223;-82
2022/12/07 03:47:49;;;;;;;12.13;6.95;;;2.80;1.00;;;;;;6231890;22;20205;-82
2022/12/07 03:50:29;;;;;;;12.65;7.95;;;2.80;1.00;;;;;;6233315;22;20271;-83
2022/12/07 03:53:06;;;;;;;12.57;7.70;;;2.80;1.00;;;;;;6228722;22;20205;-81
2022/12/07 03:55:44;;;;;;;13.80;8.20;;;2.80;1.00;;;;;;6231569;22;20212;-83
2022/12/07 03:58:20;;;;;;;12.95;7.60;;;2.70;1.00;;;;;;6228945;22;20220;-79
2022/12/07 04:00:47;;;;;;;14.07;8.38;;;2.70;1.00;;;;;;6228880;22;20223;-83
2022/12/07 04:03:16;;;;;;;15.43;8.43;;;2.70;1.00;;;;;;6209003;22;20221;-77
2022/12/07 04:05:50;;;;;;;15.15;8.05;;;2.60;1.00;;;;;;6228277;22;20219;-82
2022/12/07 04:08:23;;;;;;;14.50;9.00;;;2.70;1.00;;;;;;6230675;22;20353;-80
2022/12/07 04:10:50;;;;;;;14.65;8.68;;;2.70;1.00;;;;;;6226832;22;20215;-80
2022/12/07 04:14:17;;;;;;;14.60;9.82;;;2.60;1.00;;;;;;6227507;22;20210;-79
2022/12/07 04:16:21;;;;;;;15.52;9.45;;;2.50;1.00;;;;;;6228824;22;20576;-82
2022/12/07 04:18:52;;;;;;;14.60;9.23;;;2.40;1.00;;;;;;6230977;22;20193;-83
2022/12/07 04:21:21;;;;;;;15.35;9.43;;;2.30;1.00;;;;;;6215017;22;20219;-79
2022/12/07 04:23:51;;;;;;;15.15;9.05;;;2.30;1.00;;;;;;6231362;22;20208;-82
2022/12/07 04:26:51;;;;;;;16.98;10.30;;;2.30;1.00;;;;;;6209791;22;20221;-79
2022/12/07 04:29:21;;;;;;;17.13;10.43;;;2.20;1.00;;;;;;6222096;22;20699;-78
2022/12/07 04:31:50;;;;;;;22.75;11.77;;;2.20;1.00;;;;;;6214860;22;20203;-82
2022/12/07 04:34:21;;;;;;;18.30;10.55;;;2.20;1.00;;;;;;6211609;22;20212;-77
2022/12/07 04:36:52;;;;;;;22.00;11.30;;;2.10;1.00;;;;;;6228978;22;20859;-82
2022/12/07 04:39:24;;;;;;;21.42;12.48;;;2.10;1.00;;;;;;6225893;22;20252;-78
2022/12/07 04:41:52;;;;;;;21.63;12.68;;;2.10;1.00;;;;;;6213711;22;20265;-79
2022/12/07 04:44:23;;;;;;;20.73;12.80;;;2.10;1.00;;;;;;6227049;22;20219;-80
2022/12/07 04:46:52;;;;;;;21.55;13.18;;;2.10;1.00;;;;;;6230802;22;20203;-81
2022/12/07 04:49:29;;;;;;;22.85;12.60;;;2.20;1.00;;;;;;6211060;22;20219;-79
2022/12/07 04:52:02;;;;;;;24.15;13.85;;;2.10;1.00;;;;;;6231298;22;20222;-81
2022/12/07 04:54:31;;;;;;;20.92;13.00;;;2.10;1.00;;;;;;6213505;22;20235;-79
2022/12/07 04:56:58;;;;;;;22.30;13.40;;;2.20;1.00;;;;;;6229975;22;21006;-80
2022/12/07 04:59:30;;;;;;;21.55;13.55;;;2.20;1.00;;;;;;6193787;22;20239;-79
2022/12/07 05:01:59;;;;;;;25.95;14.80;;;2.20;1.00;;;;;;6228211;22;20216;-79
2022/12/07 05:04:46;;;;;;;23.42;15.32;;;2.20;1.00;;;;;;6193141;22;20216;-79
2022/12/07 05:07:22;;;;;;;23.42;15.00;;;2.30;1.00;;;;;;6196148;22;20212;-81
2022/12/07 05:09:51;;;;;;;26.58;14.32;;;2.30;1.00;;;;;;6226117;22;20350;-79
2022/12/07 05:12:22;;;;;;;26.15;16.50;;;2.30;1.00;;;;;;6222432;22;20258;-83
2022/12/07 05:14:52;;;;;;;25.00;14.52;;;2.40;1.00;;;;;;6233176;22;20202;-84
2022/12/07 05:17:21;;;;;;;24.80;14.93;;;2.40;1.00;;;;;;6227105;22;20209;-80
2022/12/07 05:19:49;;;;;;;24.20;14.52;;;2.40;1.00;;;;;;6225109;22;20235;-79
2022/12/07 05:22:21;;;;;;;24.90;15.35;;;2.40;1.00;;;;;;6229793;22;20227;-80
2022/12/07 05:24:48;;;;;;;26.10;14.82;;;2.40;1.00;;;;;;6231996;22;20209;-78
2022/12/07 05:27:19;;;;;;;26.00;16.02;;;2.50;1.00;;;;;;6231249;22;20204;-81
2022/12/07 05:29:47;;;;;;;27.55;16.13;;;2.50;1.00;;;;;;6233745;22;20196;-82
2022/12/07 05:32:17;;;;;;;27.17;16.75;;;2.60;1.00;;;;;;6229529;22;20220;-81
2022/12/07 05:34:44;;;;;;;27.95;18.00;;;2.60;1.00;;;;;;6228398;22;20271;-79
2022/12/07 05:37:12;;;;;;;29.13;17.52;;;2.60;1.00;;;;;;6230906;22;20284;-82
2022/12/07 05:39:42;;;;;;;26.60;16.63;;;2.60;1.00;;;;;;6232799;22;20232;-80
2022/12/07 05:42:20;;;;;;;26.05;15.85;;;2.60;1.00;;;;;;6229736;22;20297;-79
2022/12/07 05:44:49;;;;;;;30.67;17.02;;;2.60;1.00;;;;;;6235443;22;20267;-82
2022/12/07 05:47:21;;;;;;;28.15;17.77;;;2.70;1.00;;;;;;6230782;22;20215;-80
2022/12/07 05:49:48;;;;;;;30.52;17.85;;;2.70;1.00;;;;;;6231627;22;20245;-78
2022/12/07 05:52:25;;;;;;;29.67;16.33;;;2.80;1.00;;;;;;6229137;22;20224;-78
2022/12/07 05:55:00;;;;;;;30.83;18.58;;;2.80;1.00;;;;;;6230446;22;20212;-80
2022/12/07 05:57:28;;;;;;;30.73;18.33;;;2.80;1.00;;;;;;6228182;22;20213;-81
2022/12/07 05:59:54;;;;;;;30.48;17.95;;;2.80;1.00;;;;;;6234148;22;20247;-81
2022/12/07 06:02:22;;;;;;;30.23;19.15;;;2.80;1.00;;;;;;6212896;22;20346;-79
2022/12/07 06:04:49;;;;;;;29.17;17.65;;;2.90;1.00;;;;;;6231885;22;20213;-81
2022/12/07 06:07:23;;;;;;;29.70;17.58;;;2.90;1.00;;;;;;6230315;22;20227;-83
2022/12/07 06:09:53;;;;;;;34.17;18.52;;;2.90;1.00;;;;;;6233063;22;20219;-83
2022/12/07 06:15:12;;;;;;;28.50;17.48;;;3.10;1.00;;;;;;6233374;22;20664;-81
2022/12/07 06:17:43;;;;;;;33.35;20.02;;;3.20;1.00;;;;;;6234094;22;20259;-81
2022/12/07 06:20:10;;;;;;;29.63;18.08;;;3.20;1.00;;;;;;6232403;22;20220;-81
2022/12/07 06:22:43;;;;;;;33.88;20.33;;;3.20;1.00;;;;;;6234285;22;20213;-82
2022/12/07 06:25:13;;;;;;;32.05;18.92;;;3.20;1.00;;;;;;6233073;22;20263;-80
2022/12/07 06:27:41;;;;;;;33.70;17.92;;;3.20;1.00;;;;;;6234995;22;20684;-82
2022/12/07 06:30:09;;;;;;;30.90;18.90;;;3.20;1.00;;;;;;6236395;22;20300;-82
2022/12/07 06:32:48;;;;;;;35.45;19.98;;;3.20;1.00;;;;;;6232964;22;20216;-80
2022/12/07 06:35:21;;;;;;;32.15;19.45;;;3.20;1.00;;;;;;6224384;22;20220;-79
2022/12/07 06:37:50;;;;;;;34.85;19.80;;;3.20;1.00;;;;;;6230053;22;20572;-76
2022/12/07 06:40:22;;;;;;;30.23;18.25;;;3.20;1.00;;;;;;6224775;22;20230;-77
2022/12/07 06:42:49;;;;;;;28.50;17.17;;;3.20;1.00;;;;;;6230842;22;20215;-76
2022/12/07 06:45:21;;;;;;;32.33;18.65;;;3.20;1.00;;;;;;6228975;22;20213;-76
2022/12/07 06:47:49;;;;;;;36.50;19.80;;;3.20;1.00;;;;;;6230356;22;20257;-77
2022/12/07 06:50:21;;;;;;;28.45;17.73;;;3.20;1.00;;;;;;6225375;22;20212;-79
2022/12/07 06:52:52;;;;;;;32.17;18.67;;;3.20;1.00;;;;;;6229619;22;20210;-75
2022/12/07 06:55:22;;;;;;;30.55;17.48;;;3.20;1.00;;;;;;6229354;22;20205;-77
2022/12/07 06:57:49;;;;;;;33.58;18.95;;;3.20;1.00;;;;;;6232273;22;20217;-76
2022/12/07 07:00:21;;;;;;;30.83;18.55;;;3.20;1.00;;;;;;6231869;22;20205;-77
2022/12/07 07:02:51;;;;;;;32.92;19.73;;;3.20;1.00;;;;;;6232596;22;20264;-79
2022/12/07 07:05:25;;;;;;;29.58;18.73;;;3.20;1.00;;;;;;6231299;22;20212;-79
2022/12/07 07:08:04;;;;;;;33.20;20.23;;;3.30;1.00;;;;;;6227429;22;20211;-79
2022/12/07 07:10:32;;;;;;;32.78;19.40;;;3.40;1.00;;;;;;6229070;22;20233;-79
2022/12/07 07:13:02;;;;;;;32.90;20.30;;;3.50;1.00;;;;;;6216595;22;20224;-78
2022/12/07 07:15:32;;;;;;;34.67;19.60;;;3.50;1.00;;;;;;6230538;22;20224;-84
2022/12/07 07:18:03;;;;;;;28.60;20.33;;;3.60;1.00;;;;;;6234011;22;20236;-80
2022/12/07 07:20:30;;;;;;;32.50;19.70;;;3.60;1.00;;;;;;6231738;22;20973;-81
2022/12/07 07:23:03;;;;;;;29.65;18.10;;;3.70;1.00;;;;;;6233820;22;20243;-79
2022/12/07 07:25:30;;;;;;;33.28;21.20;;;3.70;1.00;;;;;;6231356;22;20227;-79
2022/12/07 07:28:02;;;;;;;30.63;19.00;;;3.80;1.00;;;;;;6235175;22;20206;-80
2022/12/07 07:30:29;;;;;;;31.17;18.95;;;3.80;1.00;;;;;;6234047;22;20926;-80
2022/12/07 07:33:03;;;;;;;31.63;20.38;;;3.80;1.00;;;;;;6233835;22;20216;-78
2022/12/07 07:35:32;;;;;;;32.88;19.80;;;3.80;1.00;;;;;;6233011;22;20215;-81
2022/12/07 07:38:03;;;;;;;32.97;20.08;;;3.80;1.00;;;;;;6235097;22;20209;-80
2022/12/07 07:40:31;;;;;;;27.65;18.00;;;3.80;1.00;;;;;;6232677;22;20224;-79
2022/12/07 07:43:02;;;;;;;32.67;16.65;;;3.80;1.00;;;;;;6233996;22;20206;-79
2022/12/07 07:45:29;;;;;;;26.90;16.55;;;3.70;1.00;;;;;;6231512;22;20216;-80
2022/12/07 07:48:08;;;;;;;29.73;17.10;;;3.70;1.00;;;;;;6231111;22;20433;-80
2022/12/07 07:50:41;;;;;;;25.88;16.38;;;3.60;1.00;;;;;;6232959;22;20203;-79
2022/12/07 07:53:10;;;;;;;25.75;16.65;;;3.70;1.00;;;;;;6233263;22;20228;-80
2022/12/07 07:55:41;;;;;;;25.83;14.55;;;3.70;1.00;;;;;;6232137;22;20224;-81
2022/12/07 07:58:08;;;;;;;25.02;16.27;;;3.60;1.00;;;;;;6232540;23;20226;-80
2022/12/07 08:00:39;;;;;;;27.77;17.05;;;3.70;1.00;;;;;;6229409;22;20220;-82
2022/12/07 08:03:07;;;;;;;26.77;13.75;;;3.70;1.00;;;;;;6232022;22;20228;-82
2022/12/07 08:05:33;;;;;;;25.60;17.05;;;3.80;1.00;;;;;;6232879;22;20207;-80
2022/12/07 08:08:01;;;;;;;24.67;14.70;;;3.80;1.00;;;;;;6235462;22;20219;-78
2022/12/07 08:10:40;;;;;;;22.83;12.75;;;3.80;1.00;;;;;;6231524;22;20231;-81
2022/12/07 08:13:13;;;;;;;18.23;11.68;;;3.80;1.00;;;;;;6231175;22;20209;-79
2022/12/07 08:15:43;;;;;;;21.20;11.75;;;3.70;1.00;;;;;;6232216;22;20213;-80
2022/12/07 08:18:11;;;;;;;21.27;13.52;;;3.70;1.00;;;;;;6229623;22;20227;-80
2022/12/07 08:20:42;;;;;;;20.67;12.80;;;3.80;1.00;;;;;;6233620;22;20197;-79
2022/12/07 08:23:11;;;;;;;16.13;10.73;;;3.80;1.00;;;;;;6229850;22;20220;-79
2022/12/07 08:25:45;;;;;;;17.70;11.00;;;3.80;1.00;;;;;;6233075;22;20196;-80
2022/12/07 08:28:13;;;;;;;17.70;11.10;;;3.80;1.00;;;;;;6230319;22;20216;-79
2022/12/07 08:30:42;;;;;;;16.17;9.65;;;3.80;1.00;;;;;;6232140;22;20204;-80
2022/12/07 08:33:10;;;;;;;16.13;9.25;;;3.80;1.00;;;;;;6233482;22;20210;-77
2022/12/07 08:35:43;;;;;;;16.60;9.60;;;3.80;1.00;;;;;;6231513;22;20224;-80
2022/12/07 08:38:10;;;;;;;13.52;8.60;;;3.80;1.00;;;;;;6233181;22;20227;-81
2022/12/07 08:40:43;;;;;;;15.32;8.98;;;3.90;1.00;;;;;;6233734;22;20196;-78
2022/12/07 08:43:11;;;;;;;13.35;8.32;;;3.80;1.00;;;;;;6232533;22;20246;-79
2022/12/07 08:45:43;;;;;;;14.48;9.20;;;3.90;1.00;;;;;;6221306;22;20216;-80
2022/12/07 08:48:13;;;;;;;15.02;8.70;;;3.90;1.00;;;;;;6228505;22;20219;-79
2022/12/07 08:50:47;;;;;;;11.15;6.93;;;3.90;1.00;;;;;;6217848;22;20205;-79
2022/12/07 08:53:23;;;;;;;12.63;6.93;;;4.00;1.00;;;;;;6232424;22;20210;-80
2022/12/07 08:55:52;;;;;;;11.23;6.45;;;3.90;1.00;;;;;;6231896;22;20235;-77
2022/12/07 08:58:21;;;;;;;12.13;5.85;;;3.90;1.00;;;;;;6233388;22;20220;-79
2022/12/07 09:00:48;;;;;;;9.02;5.38;;;3.90;1.00;;;;;;6230244;22;20904;-80
2022/12/07 09:03:20;;;;;;;11.25;5.65;;;3.90;1.00;;;;;;6229984;22;20224;-79
2022/12/07 09:05:48;;;;;;;8.77;4.60;;;3.90;1.00;;;;;;6230041;22;20855;-79
2022/12/07 09:08:30;;;;;;;8.60;4.57;;;3.90;1.00;;;;;;6229163;22;20247;-78
2022/12/07 09:11:02;;;;;;;8.18;4.10;;;4.00;1.00;;;;;;6228583;22;20197;-78
2022/12/07 09:13:29;;;;;;;8.15;4.03;;;4.00;1.00;;;;;;6228928;22;20222;-80
2022/12/07 09:16:01;;;;;;;9.02;3.63;;;4.00;1.00;;;;;;6220254;22;20238;-81
2022/12/07 09:18:28;;;;;;;8.30;4.45;;;4.00;1.00;;;;;;6231742;22;20323;-80
2022/12/07 09:21:02;;;;;;;8.70;3.40;;;4.00;1.00;;;;;;6227977;22;20209;-79
2022/12/07 09:23:30;;;;;;;7.95;3.90;;;4.10;1.00;;;;;;6229215;22;20221;-80
2022/12/07 09:26:05;;;;;;;7.75;2.92;;;4.20;1.00;;;;;;6228473;22;20214;-79
2022/12/07 09:31:13;;;;;;;6.80;2.60;;;4.30;1.00;;;;;;6228593;22;20286;-80
2022/12/07 09:33:42;;;;;;;6.60;2.50;;;4.20;1.00;;;;;;6233982;22;20204;-78
2022/12/07 09:36:11;;;;;;;6.70;2.67;;;4.00;1.00;;;;;;6231365;22;20221;-81
2022/12/07 09:38:46;;;;;;;7.78;2.65;;;3.90;1.00;;;;;;6242199;22;20227;-81
2022/12/07 09:41:22;;;;;;;8.15;3.28;;;3.90;1.00;;;;;;6235643;22;20216;-78
2022/12/07 09:43:53;;;;;;;6.63;2.72;;;3.90;1.00;;;;;;6237661;22;20213;-78
2022/12/07 09:46:26;;;;;;;12.10;2.97;;;3.90;1.00;;;;;;6243056;22;20200;-79
2022/12/07 09:48:54;;;;;;;7.68;3.38;;;3.80;1.00;;;;;;6235766;22;20209;-78
2022/12/07 09:51:24;;;;;;;7.70;3.35;;;3.80;1.00;;;;;;6236988;22;20192;-81
2022/12/07 09:54:01;;;;;;;7.53;2.72;;;3.80;1.00;;;;;;6228588;22;20215;-79
2022/12/07 09:56:45;;;;;;;8.00;3.08;;;3.70;1.00;;;;;;6238744;22;20301;-78
2022/12/07 09:59:21;;;;;;;8.05;3.58;;;3.80;1.00;;;;;;6232961;22;20758;-79
2022/12/07 10:01:53;;;;;;;7.20;2.75;;;3.80;1.00;;;;;;6232835;22;20958;-79
2022/12/07 10:04:31;;;;;;;7.07;3.33;;;3.80;1.00;;;;;;6239170;22;20208;-81
2022/12/07 10:07:12;;;;;;;7.60;3.65;;;3.80;1.00;;;;;;6241468;22;20243;-80
2022/12/07 10:09:44;;;;;;;7.05;2.65;;;3.90;1.00;;;;;;6242935;22;20215;-80
2022/12/07 10:12:22;;;;;;;6.55;2.72;;;3.90;1.00;;;;;;6238238;22;20218;-79
2022/12/07 10:15:03;;;;;;;7.95;2.83;;;3.80;1.00;;;;;;6202243;22;20216;-79
2022/12/07 10:17:49;;;;;;;7.68;2.90;;;3.80;1.00;;;;;;6195198;22;20219;-78
2022/12/07 10:20:29;;;;;;;7.30;2.80;;;3.80;1.00;;;;;;6270357;22;20211;-79
2022/12/07 10:26:21;;;;;;;6.45;2.60;;;4.00;1.00;;;;;;6256028;22;20213;-80
2022/12/07 10:28:52;;;;;;;6.65;2.90;;;4.00;1.00;;;;;;6267766;22;20226;-79
2022/12/07 10:31:25;;;;;;;6.55;2.97;;;3.90;1.00;;;;;;6266871;22;20214;-77
2022/12/07 10:36:49;;;;;;;7.13;3.00;;;4.10;1.00;;;;;;6275157;22;20213;-80
2022/12/07 10:39:27;;;;;;;8.48;4.30;;;4.20;1.00;;;;;;6258848;22;20480;-82
2022/12/07 10:44:45;;;;;;;7.95;3.22;;;4.40;1.00;;;;;;6270860;22;20217;-77
2022/12/07 10:47:34;;;;;;;6.43;2.92;;;4.60;1.00;;;;;;6274082;22;20266;-80
2022/12/07 10:50:31;;;;;;;6.80;2.90;;;5.30;1.00;;;;;;6277133;22;20252;-81
2022/12/07 10:53:30;;;;;;;9.05;3.30;;;6.30;1.00;;;;;;6275393;22;20209;-79
2022/12/07 10:56:41;;;;;;;7.45;3.30;;;6.40;1.00;;;;;;6140392;22;20208;-79
2022/12/07 10:59:44;;;;;;;7.38;3.10;;;6.00;1.00;;;;;;6270960;22;20715;-77
2022/12/07 11:02:32;;;;;;;6.40;3.35;;;5.50;1.00;;;;;;6252414;22;20273;-78
2022/12/07 11:05:14;;;;;;;6.95;3.13;;;5.10;1.00;;;;;;6262697;22;20205;-79
2022/12/07 11:07:50;;;;;;;8.60;2.97;;;4.90;1.00;;;;;;6264766;22;20215;-77
2022/12/07 11:10:29;;;;;;;7.05;3.45;;;4.90;1.00;;;;;;6261566;22;20212;-82
2022/12/07 11:13:21;;;;;;;9.57;4.20;;;4.90;1.00;;;;;;6261191;22;20264;-82
2022/12/07 11:16:10;;;;;;;7.20;3.80;;;4.90;1.00;;;;;;6262292;22;20208;-79
2022/12/07 11:19:01;;;;;;;6.97;3.80;;;4.90;1.00;;;;;;6230811;22;20220;-80
2022/12/07 11:21:41;;;;;;;8.20;4.00;;;4.90;1.00;;;;;;6260655;22;20209;-77
2022/12/07 11:24:14;;;;;;;9.57;4.35;;;4.80;1.00;;;;;;6256657;22;20217;-78
2022/12/07 11:27:05;;;;;;;9.20;4.65;;;4.80;1.00;;;;;;6259926;22;20239;-77
2022/12/07 11:29:55;;;;;;;10.98;5.47;;;4.80;1.00;;;;;;6261019;22;20224;-79
2022/12/07 11:32:41;;;;;;;10.90;5.30;;;4.90;1.00;;;;;;6261004;22;20232;-79
2022/12/07 11:35:26;;;;;;;9.85;4.20;;;4.90;1.00;;;;;;6259045;22;20213;-80
2022/12/07 11:38:02;;;;;;;9.60;4.57;;;5.00;1.00;;;;;;6260914;22;20209;-77
2022/12/07 11:40:34;;;;;;;11.20;4.85;;;5.00;1.00;;;;;;6262094;22;20220;-79
2022/12/07 11:43:06;;;;;;;11.73;5.50;;;5.00;1.00;;;;;;6262948;22;20231;-79
2022/12/07 11:45:40;;;;;;;17.50;5.07;;;5.10;1.00;;;;;;6266088;22;20243;-81
2022/12/07 11:48:12;;;;;;;9.73;4.95;;;5.20;1.00;;;;;;6262343;22;20231;-80
2022/12/07 11:50:51;;;;;;;11.43;5.72;;;5.20;1.00;;;;;;6265663;22;20209;-82
2022/12/07 11:53:28;;;;;;;9.80;5.03;;;5.30;1.00;;;;;;6263795;22;20222;-80
2022/12/07 11:56:04;;;;;;;11.57;5.45;;;5.30;1.00;;;;;;6262981;22;20240;-79
2022/12/07 11:58:50;;;;;;;9.30;5.13;;;5.20;1.00;;;;;;6262444;22;20212;-79
2022/12/07 12:01:43;;;;;;;15.82;8.40;;;5.20;1.00;;;;;;6264288;22;20214;-78
2022/12/07 12:04:41;;;;;;;11.75;5.60;;;5.20;1.00;;;;;;6261148;22;20214;-78
2022/12/07 12:07:23;;;;;;;9.02;5.00;;;5.10;1.00;;;;;;6263286;22;20188;-79
2022/12/07 12:10:06;;;;;;;10.90;6.00;;;5.10;1.00;;;;;;6267596;22;20208;-82
2022/12/07 12:13:13;;;;;;;9.20;4.93;;;5.10;1.00;;;;;;6268907;22;20220;-79
2022/12/07 12:16:00;;;;;;;20.20;5.18;;;5.20;1.00;;;;;;6259538;22;20268;-79
2022/12/07 12:18:53;;;;;;;9.60;5.22;;;5.20;1.00;;;;;;6264811;22;20220;-80
2022/12/07 12:21:27;;;;;;;9.40;4.03;;;5.30;1.00;;;;;;6259034;22;20205;-81
2022/12/07 12:24:18;;;;;;;8.70;4.10;;;5.30;1.00;;;;;;6261312;22;20201;-78
2022/12/07 12:26:52;;;;;;;11.00;4.40;;;5.40;1.00;;;;;;6262818;22;20216;-80
2022/12/07 12:29:28;;;;;;;9.45;4.35;;;5.40;1.00;;;;;;6262277;22;21031;-79
2022/12/07 12:32:22;;;;;;;17.13;5.53;;;5.40;1.00;;;;;;6265050;22;20211;-80
2022/12/07 12:35:30;;;;;;;13.05;4.95;;;5.50;1.00;;;;;;6257837;22;20231;-80
2022/12/07 12:38:28;;;;;;;8.57;4.03;;;5.50;1.00;;;;;;6262939;22;20213;-78
2022/12/07 12:41:03;;;;;;;7.75;3.75;;;5.30;1.00;;;;;;6263738;22;20266;-78
2022/12/07 12:43:48;;;;;;;9.23;4.20;;;5.40;1.00;;;;;;6264414;22;20208;-81
2022/12/07 12:46:49;;;;;;;10.35;3.58;;;5.40;1.00;;;;;;6266789;22;20307;-79
2022/12/07 12:49:42;;;;;;;13.27;4.82;;;5.30;1.00;;;;;;6248707;22;22273;-80
2022/12/07 12:52:52;;;;;;;10.07;3.55;;;5.20;1.00;;;;;;6264807;22;20212;-81
2022/12/07 12:55:53;;;;;;;10.63;3.42;;;5.10;1.00;;;;;;6259480;22;20227;-79
2022/12/07 12:58:39;;;;;;;8.63;3.90;;;5.10;1.00;;;;;;6184370;22;20212;-80
2022/12/07 13:01:48;;;;;;;12.93;3.70;;;5.20;1.00;;;;;;6264222;22;20219;-78
2022/12/07 13:04:50;;;;;;;12.52;3.90;;;5.20;1.00;;;;;;6249067;22;20209;-79
2022/12/07 13:07:55;;;;;;;7.55;3.08;;;5.20;1.00;;;;;;6261531;22;20208;-79
2022/12/07 13:10:44;;;;;;;9.40;3.80;;;5.20;1.00;;;;;;6263214;22;20211;-79
2022/12/07 13:13:45;;;;;;;11.65;3.50;;;5.30;1.00;;;;;;6266084;22;20211;-78
2022/12/07 13:16:49;;;;;;;8.30;3.70;;;5.20;1.00;;;;;;6261670;22;20211;-79
2022/12/07 13:20:01;;;;;;;13.15;4.07;;;5.20;1.00;;;;;;6255968;22;20208;-79
2022/12/07 13:22:59;;;;;;;8.73;4.25;;;5.30;1.00;;;;;;6189012;22;20219;-79
2022/12/07 13:25:42;;;;;;;11.60;5.00;;;5.40;1.00;;;;;;6257483;22;20213;-78
2022/12/07 13:28:19;;;;;;;9.55;3.60;;;5.40;1.00;;;;;;6262467;22;20207;-80
2022/12/07 13:31:12;;;;;;;12.32;3.97;;;5.40;1.00;;;;;;6261846;22;20212;-77
2022/12/07 13:33:41;;;;;;;13.73;3.85;;;5.40;1.00;;;;;;6261909;22;20217;-78
2022/12/07 13:36:20;;;;;;;10.65;4.38;;;5.40;1.00;;;;;;6247003;22;20214;-81
2022/12/07 13:38:57;;;;;;;8.15;3.60;;;5.40;1.00;;;;;;6263703;22;20212;-79
2022/12/07 13:41:31;;;;;;;9.90;3.50;;;5.40;1.00;;;;;;6261883;22;20700;-79
2022/12/07 13:44:04;;;;;;;9.35;4.60;;;5.40;1.00;;;;;;6260677;22;20224;-80
2022/12/07 13:46:45;;;;;;;10.85;3.85;;;5.30;1.00;;;;;;6263997;22;20208;-80
2022/12/07 13:49:24;;;;;;;10.43;3.88;;;5.30;1.00;;;;;;6262153;22;20218;-77
2022/12/07 13:51:53;;;;;;;14.15;4.03;;;5.20;1.00;;;;;;6260016;22;20217;-78
2022/12/07 13:54:24;;;;;;;13.15;3.63;;;5.20;1.00;;;;;;6261593;22;20226;-77